Time;durP1;ratioP1;P1;durP2;ratioP2;P2;SDS_P1;SDS_P2;PMS_P1;PMS_P2;Temp;Humidity;BMP_temperature;BMP_pressure;BME280_temperature;BME280_humidity;BME280_pressure;Samples;Min_cycle;Max_cycle;Signal;HPM_P1;HPM_P2
2021/09/24 00:02:02;;;;;;;17.60;10.90;;;;;;;6.48;82.40;97469.90;116989;1177;71201;-69
2021/09/24 00:04:35;;;;;;;16.60;11.10;;;;;;;6.47;82.10;97462.52;117262;1168;69218;-69
2021/09/24 00:07:07;;;;;;;15.20;11.10;;;;;;;6.46;81.92;97455.04;117396;1177;68493;-69
2021/09/24 00:09:36;;;;;;;15.90;10.60;;;;;;;6.45;82.04;97445.79;117268;1177;59532;-70
2021/09/24 00:12:06;;;;;;;15.40;10.50;;;;;;;6.44;82.04;97426.15;117355;1169;59532;-71
2021/09/24 00:14:36;;;;;;;14.20;9.90;;;;;;;6.40;82.06;97421.64;117398;1175;70625;-70
2021/09/24 00:17:06;;;;;;;14.70;9.90;;;;;;;6.38;82.77;97416.27;117379;1176;69050;-72
2021/09/24 00:19:35;;;;;;;15.80;10.00;;;;;;;6.39;82.34;97406.11;117377;1177;67450;-69
2021/09/24 00:22:06;;;;;;;13.30;9.20;;;;;;;6.39;82.11;97402.33;117430;1176;59488;-70
2021/09/24 00:24:35;;;;;;;14.60;9.20;;;;;;;6.40;82.07;97404.76;117240;1174;59760;-72
2021/09/24 00:27:05;;;;;;;15.60;9.90;;;;;;;6.43;81.76;97409.02;117361;1177;71156;-67
2021/09/24 00:29:35;;;;;;;15.90;9.50;;;;;;;6.45;81.77;97402.48;117449;1175;69198;-68
2021/09/24 00:32:05;;;;;;;13.10;9.00;;;;;;;6.48;81.44;97408.59;117431;1166;69505;-68
2021/09/24 00:34:35;;;;;;;13.80;9.90;;;;;;;6.49;81.57;97413.91;117374;1175;59475;-69
2021/09/24 00:37:04;;;;;;;12.90;9.10;;;;;;;6.51;81.30;97419.16;117389;1177;59528;-72
2021/09/24 00:39:34;;;;;;;13.40;8.50;;;;;;;6.54;81.08;97414.63;117380;1177;71349;-74
2021/09/24 00:42:04;;;;;;;15.30;8.50;;;;;;;6.56;81.16;97412.70;117398;1177;68540;-73
2021/09/24 00:44:42;;;;;;;12.10;8.80;;;;;;;6.59;81.04;97418.40;117250;1177;68422;-71
2021/09/24 00:47:12;;;;;;;13.70;8.30;;;;;;;6.61;80.86;97431.34;117346;1177;59535;-73
2021/09/24 00:49:42;;;;;;;11.60;8.30;;;;;;;6.63;81.00;97432.89;117438;1176;59525;-70
2021/09/24 00:52:12;;;;;;;13.80;8.80;;;;;;;6.64;81.63;97422.03;117453;1169;71364;-70
2021/09/24 00:54:45;;;;;;;;;;;;;;;6.67;81.18;97418.93;117105;1177;68453;-69
2021/09/24 00:57:15;;;;;;;12.60;8.40;;;;;;;6.66;82.03;97413.21;117367;1176;68283;-73
2021/09/24 00:59:46;;;;;;;14.70;8.70;;;;;;;6.69;81.82;97408.46;117362;1176;59533;-72
2021/09/24 01:02:16;;;;;;;12.40;9.20;;;;;;;6.71;81.59;97411.87;117402;1176;59532;-69
2021/09/24 01:04:46;;;;;;;11.10;8.30;;;;;;;6.74;81.84;97408.76;117427;1177;71424;-69
2021/09/24 01:07:16;;;;;;;14.40;9.90;;;;;;;6.77;81.40;97399.42;117489;1175;69217;-68
2021/09/24 01:09:46;;;;;;;12.90;9.10;;;;;;;6.80;81.30;97397.58;117315;1176;69366;-75
2021/09/24 01:12:17;;;;;;;13.90;10.00;;;;;;;6.82;81.20;97394.98;117435;1169;59450;-72
2021/09/24 01:15:01;;;;;;;14.10;9.90;;;;;;;6.85;81.11;97381.64;117404;1175;58525;-68
2021/09/24 01:17:32;;;;;;;16.10;11.70;;;;;;;6.85;81.28;97371.03;117424;1175;70671;-74
2021/09/24 01:20:04;;;;;;;13.70;9.40;;;;;;;6.85;81.19;97367.95;117599;1176;69193;-69
2021/09/24 01:22:35;;;;;;;15.30;10.10;;;;;;;6.86;81.44;97354.64;117403;1177;68497;-69
2021/09/24 01:25:07;;;;;;;16.00;10.10;;;;;;;6.88;81.21;97348.48;117410;1175;59505;-70
2021/09/24 01:27:38;;;;;;;15.20;10.80;;;;;;;6.88;81.04;97342.41;117228;1176;59583;-73
2021/09/24 01:30:10;;;;;;;15.80;10.00;;;;;;;6.90;80.98;97338.38;117282;1177;70575;-70
2021/09/24 01:32:40;;;;;;;13.90;10.00;;;;;;;6.88;80.81;97332.19;117509;1176;69333;-71
2021/09/24 01:35:12;;;;;;;14.90;10.60;;;;;;;6.90;80.91;97329.17;117391;1176;68405;-72
2021/09/24 01:37:42;;;;;;;18.00;10.40;;;;;;;6.93;80.79;97320.55;117379;1177;59470;-73
2021/09/24 01:40:18;;;;;;;14.60;10.50;;;;;;;6.93;80.76;97306.70;117349;1175;59526;-72
2021/09/24 01:42:52;;;;;;;15.60;11.00;;;;;;;6.93;80.76;97297.02;117296;1177;70549;-71
2021/09/24 01:45:22;;;;;;;14.10;10.40;;;;;;;6.93;80.76;97277.83;117345;1176;68901;-70
2021/09/24 01:47:52;;;;;;;19.10;10.30;;;;;;;6.91;81.05;97288.40;117361;1175;68457;-72
2021/09/24 01:50:22;;;;;;;14.50;10.40;;;;;;;6.92;80.71;97286.34;117105;1177;59536;-69
2021/09/24 01:52:52;;;;;;;16.30;10.00;;;;;;;6.92;80.42;97288.07;117386;1176;59636;-71
2021/09/24 01:55:22;;;;;;;15.70;9.90;;;;;;;6.94;80.18;97288.90;117384;1177;71360;-71
2021/09/24 01:57:53;;;;;;;12.90;8.90;;;;;;;6.95;79.87;97290.77;117328;1177;68368;-69
2021/09/24 02:00:23;;;;;;;12.90;8.70;;;;;;;6.95;79.71;97288.41;117339;1175;69231;-73
2021/09/24 02:02:53;;;;;;;11.80;8.50;;;;;;;6.96;79.22;97278.80;117330;1176;59521;-68
2021/09/24 02:05:23;;;;;;;13.20;9.40;;;;;;;6.98;79.58;97275.30;117432;1177;59542;-74
2021/09/24 02:07:53;;;;;;;12.60;9.10;;;;;;;7.00;79.26;97274.56;117428;1175;71250;-71
2021/09/24 02:10:22;;;;;;;11.50;8.30;;;;;;;7.02;78.67;97268.89;117351;1176;68523;-71
2021/09/24 02:12:57;;;;;;;17.50;9.30;;;;;;;7.03;79.05;97272.64;117285;1176;69250;-69
2021/09/24 02:15:28;;;;;;;12.60;8.60;;;;;;;7.03;79.68;97273.19;117222;1176;59548;-73
2021/09/24 02:17:58;;;;;;;12.20;7.90;;;;;;;7.03;79.90;97275.79;117220;1176;59525;-72
2021/09/24 02:20:27;;;;;;;11.50;8.60;;;;;;;7.02;79.93;97270.54;117276;1176;70411;-69
2021/09/24 02:22:58;;;;;;;12.20;8.30;;;;;;;7.00;79.76;97269.61;117318;1177;68302;-73
2021/09/24 02:25:28;;;;;;;14.80;8.50;;;;;;;6.97;80.36;97274.98;117299;1176;69235;-73
2021/09/24 02:27:58;;;;;;;14.40;9.70;;;;;;;6.95;80.41;97284.33;117257;1176;59526;-70
2021/09/24 02:30:28;;;;;;;17.40;10.70;;;;;;;6.90;80.98;97285.20;117298;1177;59507;-72
2021/09/24 02:32:58;;;;;;;14.90;10.40;;;;;;;6.85;80.93;97285.53;117295;1176;70562;-73
2021/09/24 02:35:27;;;;;;;14.70;9.80;;;;;;;6.81;80.96;97287.39;117031;1174;69228;-71
2021/09/24 02:37:57;;;;;;;14.30;9.20;;;;;;;6.79;80.54;97287.89;117252;1176;69181;-70
2021/09/24 02:40:28;;;;;;;15.30;9.30;;;;;;;6.77;80.29;97290.61;117306;1176;59493;-69
2021/09/24 02:42:58;;;;;;;;;;;;;;;6.76;80.51;97301.02;117271;1176;59510;-70
2021/09/24 02:45:27;;;;;;;15.60;8.40;;;;;;;6.73;80.34;97303.41;117322;1176;71210;-72
2021/09/24 02:47:57;;;;;;;12.70;9.40;;;;;;;6.72;80.32;97300.52;117361;1176;69190;-71
2021/09/24 02:50:27;;;;;;;12.30;9.10;;;;;;;6.73;80.40;97293.59;117237;1176;70149;-69
2021/09/24 02:52:57;;;;;;;12.40;8.80;;;;;;;6.74;80.05;97285.39;117040;1176;59968;-69
2021/09/24 02:55:27;;;;;;;14.50;9.30;;;;;;;6.73;80.15;97285.72;117247;1176;59532;-74
2021/09/24 02:57:57;;;;;;;13.90;9.50;;;;;;;6.70;79.93;97281.52;117339;1176;70631;-73
2021/09/24 03:00:27;;;;;;;15.30;9.50;;;;;;;6.67;80.06;97272.16;117278;1176;68044;-68
2021/09/24 03:02:58;;;;;;;15.10;9.80;;;;;;;6.62;80.30;97264.75;117313;1177;69201;-70
2021/09/24 03:05:28;;;;;;;14.00;9.10;;;;;;;6.55;80.47;97257.71;117497;1176;59520;-71
2021/09/24 03:07:58;;;;;;;15.80;9.90;;;;;;;6.47;80.85;97261.14;117108;1177;59533;-74
2021/09/24 03:10:28;;;;;;;13.20;9.10;;;;;;;6.40;80.73;97270.91;117251;1176;70459;-68
2021/09/24 03:12:57;;;;;;;15.60;9.60;;;;;;;6.32;80.78;97266.56;117269;1176;69235;-70
2021/09/24 03:15:26;;;;;;;15.40;9.30;;;;;;;6.25;81.09;97257.86;117046;1177;68741;-75
2021/09/24 03:17:56;;;;;;;15.50;9.20;;;;;;;6.18;81.33;97249.65;117287;1176;59517;-71
2021/09/24 03:20:26;;;;;;;14.10;9.90;;;;;;;6.13;82.00;97256.96;117050;1177;59593;-71
2021/09/24 03:22:55;;;;;;;13.80;10.00;;;;;;;6.07;81.92;97265.03;117316;1177;71367;-73
2021/09/24 03:25:25;;;;;;;16.40;9.90;;;;;;;6.02;82.23;97263.63;117292;1177;68470;-71
2021/09/24 03:27:54;;;;;;;15.00;9.90;;;;;;;5.98;81.99;97247.12;117205;1176;69173;-75
2021/09/24 03:30:24;;;;;;;13.10;9.50;;;;;;;5.93;82.87;97215.69;117138;1176;59443;-72
2021/09/24 03:32:53;;;;;;;15.00;9.90;;;;;;;5.89;82.53;97205.20;117290;1176;59504;-70
2021/09/24 03:35:23;;;;;;;13.80;10.20;;;;;;;5.85;82.42;97197.56;117305;1176;70619;-70
2021/09/24 03:37:52;;;;;;;15.60;10.80;;;;;;;5.79;82.31;97188.31;117231;1177;68861;-72
2021/09/24 03:40:21;;;;;;;22.90;11.00;;;;;;;5.71;82.66;97182.27;117313;1176;68490;-71
2021/09/24 03:42:51;;;;;;;15.40;10.60;;;;;;;5.63;82.90;97187.73;117278;1177;59518;-70
2021/09/24 03:45:20;;;;;;;14.50;10.00;;;;;;;5.60;83.97;97183.31;117337;1177;59443;-72
2021/09/24 03:47:49;;;;;;;16.90;9.80;;;;;;;5.56;83.24;97185.23;117379;1176;71360;-74
2021/09/24 03:50:20;;;;;;;17.00;9.70;;;;;;;5.52;84.52;97190.14;117253;1176;69265;-75
2021/09/24 03:52:53;;;;;;;13.20;9.70;;;;;;;5.46;85.10;97191.89;117308;1176;68530;-69
2021/09/24 03:55:23;;;;;;;16.30;10.70;;;;;;;5.39;85.11;97187.27;117336;1177;59536;-69
2021/09/24 03:57:53;;;;;;;;;;;;;;;5.35;85.06;97193.98;117404;1176;59603;-70
2021/09/24 04:00:23;;;;;;;15.40;10.00;;;;;;;5.32;84.61;97205.71;117347;1177;71584;-71
2021/09/24 04:02:53;;;;;;;16.90;10.20;;;;;;;5.29;84.55;97190.30;117365;1176;68352;-74
2021/09/24 04:05:22;;;;;;;14.60;10.30;;;;;;;5.25;84.65;97184.31;117170;1176;69124;-69
2021/09/24 04:07:52;;;;;;;14.90;10.00;;;;;;;5.22;84.22;97183.73;117326;1177;59485;-72
2021/09/24 04:10:21;;;;;;;14.80;10.20;;;;;;;5.20;84.50;97180.52;117313;1176;59013;-70
2021/09/24 04:12:50;;;;;;;14.60;9.40;;;;;;;5.17;84.04;97172.23;117335;1177;69430;-70
2021/09/24 04:15:20;;;;;;;13.80;10.20;;;;;;;5.14;84.33;97178.15;117201;1177;68299;-76
2021/09/24 04:17:49;;;;;;;16.80;11.20;;;;;;;5.12;84.80;97180.38;117337;1177;69175;-73
2021/09/24 04:20:18;;;;;;;16.90;10.30;;;;;;;5.10;84.32;97177.42;117353;1177;59574;-67
2021/09/24 04:22:47;;;;;;;14.20;10.20;;;;;;;5.09;83.95;97174.39;117069;1177;59516;-69
2021/09/24 04:25:17;;;;;;;14.50;10.20;;;;;;;5.11;84.04;97178.91;117287;1177;70515;-71
2021/09/24 04:27:47;;;;;;;15.20;10.40;;;;;;;5.12;84.07;97178.11;117366;1177;69268;-73
2021/09/24 04:30:16;;;;;;;14.00;10.80;;;;;;;5.12;83.97;97177.25;117043;1177;69025;-69
2021/09/24 04:32:47;;;;;;;15.50;10.30;;;;;;;5.12;84.37;97173.71;117277;1176;59487;-73
2021/09/24 04:35:16;;;;;;;15.40;10.30;;;;;;;5.12;84.51;97166.65;117146;1176;59517;-70
2021/09/24 04:37:46;;;;;;;15.30;10.90;;;;;;;5.12;85.04;97165.48;117219;1176;71483;-74
2021/09/24 04:40:15;;;;;;;17.20;10.50;;;;;;;5.11;84.48;97166.35;117314;1177;69058;-68
2021/09/24 04:42:44;;;;;;;21.60;11.20;;;;;;;5.12;84.50;97164.45;117284;1176;68230;-67
2021/09/24 04:45:13;;;;;;;13.50;9.90;;;;;;;5.13;83.99;97169.00;117213;1177;59484;-68
2021/09/24 04:47:42;;;;;;;15.90;10.40;;;;;;;5.16;84.63;97170.05;117297;1176;59526;-74
2021/09/24 04:50:12;;;;;;;14.20;9.20;;;;;;;5.19;84.31;97177.15;117309;1177;71374;-69
2021/09/24 04:52:41;;;;;;;16.40;10.40;;;;;;;5.22;84.22;97175.10;117367;1176;68971;-71
2021/09/24 04:55:11;;;;;;;14.60;9.20;;;;;;;5.24;83.97;97173.59;117190;1177;69276;-75
2021/09/24 04:57:40;;;;;;;14.90;10.20;;;;;;;5.27;84.48;97168.59;117329;1177;59472;-70
2021/09/24 05:00:11;;;;;;;15.90;10.20;;;;;;;5.31;84.19;97169.34;117330;1176;59939;-69
2021/09/24 05:02:41;;;;;;;14.70;9.90;;;;;;;5.36;83.83;97166.13;117331;1177;70750;-69
2021/09/24 05:05:11;;;;;;;11.50;7.90;;;;;;;5.44;83.67;97165.79;117308;1177;67405;-73
2021/09/24 05:07:40;;;;;;;14.00;10.10;;;;;;;5.54;84.20;97158.81;116988;1176;68242;-74
2021/09/24 05:10:09;;;;;;;15.50;10.50;;;;;;;5.59;83.80;97145.58;117404;1177;59532;-75
2021/09/24 05:12:47;;;;;;;14.70;9.80;;;;;;;5.67;83.38;97141.84;117296;1175;59542;-69
2021/09/24 05:15:16;;;;;;;16.60;10.60;;;;;;;5.74;83.69;97143.23;117006;1177;71238;-70
2021/09/24 05:17:45;;;;;;;21.90;11.30;;;;;;;5.80;83.26;97136.24;117346;1175;69074;-73
2021/09/24 05:20:14;;;;;;;16.40;11.10;;;;;;;5.84;83.25;97134.14;117319;1176;69134;-71
2021/09/24 05:22:43;;;;;;;17.60;11.00;;;;;;;5.88;83.09;97131.16;117373;1176;59535;-71
2021/09/24 05:25:13;;;;;;;18.90;12.30;;;;;;;5.93;83.11;97135.28;117388;1176;59532;-71
2021/09/24 05:27:42;;;;;;;21.00;12.50;;;;;;;6.01;83.05;97135.79;117367;1176;71954;-70
2021/09/24 05:30:11;;;;;;;17.40;11.70;;;;;;;6.21;83.13;97135.84;117238;1176;68238;-71
2021/09/24 05:32:41;;;;;;;17.80;10.50;;;;;;;6.50;82.43;97135.41;117391;1176;69179;-73
2021/09/24 05:35:11;;;;;;;15.30;9.30;;;;;;;6.88;81.84;97132.05;117215;1177;59536;-69
2021/09/24 05:37:39;;;;;;;16.40;8.90;;;;;;;7.13;79.81;97131.95;117367;1174;59516;-68
2021/09/24 05:40:09;;;;;;;15.80;9.30;;;;;;;7.24;79.72;97130.60;117318;1176;70393;-68
2021/09/24 05:42:39;;;;;;;15.70;9.80;;;;;;;7.34;79.49;97132.27;117291;1176;69151;-69
2021/09/24 05:45:11;;;;;;;13.10;9.20;;;;;;;7.55;79.50;97133.00;117433;1175;69388;-69
2021/09/24 05:47:42;;;;;;;12.10;8.40;;;;;;;7.96;78.92;97130.17;117158;1177;59593;-69
2021/09/24 05:50:13;;;;;;;14.80;8.60;;;;;;;8.39;77.67;97128.67;117374;1177;59515;-69
2021/09/24 05:52:43;;;;;;;;;;;;;;;8.68;75.68;97124.13;117418;1175;71299;-73
2021/09/24 05:55:14;;;;;;;11.80;8.40;;;;;;;8.93;74.71;97122.83;117237;1175;69238;-72
2021/09/24 05:57:43;;;;;;;15.00;8.50;;;;;;;9.21;73.67;97121.74;117416;1177;69289;-73
2021/09/24 06:00:15;;;;;;;12.60;7.70;;;;;;;9.42;72.44;97126.89;117425;1175;59608;-69
2021/09/24 06:02:49;;;;;;;14.90;7.90;;;;;;;9.77;72.12;97124.81;117393;1175;59526;-72
2021/09/24 06:05:19;;;;;;;10.30;7.20;;;;;;;10.00;70.30;97134.98;117074;1177;70603;-69
2021/09/24 06:07:48;;;;;;;14.10;7.60;;;;;;;10.11;70.24;97119.38;117364;1176;68337;-68
2021/09/24 06:10:20;;;;;;;13.60;7.50;;;;;;;10.17;69.58;97123.92;117349;1176;68488;-70
2021/09/24 06:12:49;;;;;;;11.40;7.00;;;;;;;10.30;69.62;97115.63;117288;1176;59533;-70
2021/09/24 06:15:21;;;;;;;13.30;7.30;;;;;;;10.48;69.67;97113.29;117376;1177;59477;-69
2021/09/24 06:17:50;;;;;;;11.90;7.40;;;;;;;10.52;67.73;97111.39;117420;1175;71469;-70
2021/09/24 06:20:20;;;;;;;10.60;7.40;;;;;;;10.80;65.91;97101.16;117430;1176;69492;-68
2021/09/24 06:22:50;;;;;;;10.10;7.10;;;;;;;11.24;65.92;97098.30;117364;1176;68223;-70
2021/09/24 06:25:20;;;;;;;8.70;6.20;;;;;;;11.73;63.50;97102.02;117086;1177;59539;-68
2021/09/24 06:27:50;;;;;;;9.30;6.10;;;;;;;12.01;61.86;97106.05;117413;1175;59759;-69
2021/09/24 06:30:21;;;;;;;10.50;6.30;;;;;;;12.22;61.68;97104.17;117432;1175;70450;-73
2021/09/24 06:32:51;;;;;;;11.40;6.30;;;;;;;12.52;60.22;97106.05;117380;1176;69352;-74
2021/09/24 06:35:21;;;;;;;10.40;6.30;;;;;;;12.80;58.13;97090.84;117280;1175;69280;-69
2021/09/24 06:37:53;;;;;;;8.40;5.90;;;;;;;12.98;57.24;97087.53;117320;1176;59535;-70
2021/09/24 06:40:22;;;;;;;9.00;6.10;;;;;;;13.23;57.22;97081.13;117407;1175;59536;-69
2021/09/24 06:42:51;;;;;;;9.80;6.60;;;;;;;13.33;56.32;97077.56;117414;1176;70720;-69
2021/09/24 06:45:21;;;;;;;8.40;6.10;;;;;;;13.42;56.29;97070.09;117332;1175;68246;-71
2021/09/24 06:47:50;;;;;;;13.20;6.90;;;;;;;13.60;55.87;97058.50;116983;1177;68071;-73
2021/09/24 06:50:19;;;;;;;11.10;6.50;;;;;;;13.76;54.17;97058.21;117306;1177;59583;-72
2021/09/24 06:52:48;;;;;;;10.50;6.60;;;;;;;14.00;54.30;97060.59;117336;1175;59491;-74
2021/09/24 06:55:21;;;;;;;10.00;6.70;;;;;;;13.94;54.65;97054.02;117095;1171;71501;-72
2021/09/24 06:57:54;;;;;;;10.70;6.10;;;;;;;14.14;53.74;97043.80;116961;1177;69274;-71
2021/09/24 07:00:25;;;;;;;9.20;6.80;;;;;;;14.23;53.97;97043.92;117343;1176;68573;-70
2021/09/24 07:02:54;;;;;;;11.50;7.30;;;;;;;14.41;53.09;97033.42;117375;1175;59525;-73
2021/09/24 07:05:23;;;;;;;9.90;6.30;;;;;;;14.31;53.52;97030.38;117429;1175;59524;-70
2021/09/24 07:07:52;;;;;;;9.70;6.40;;;;;;;14.29;54.00;97034.57;117382;1177;71306;-70
2021/09/24 07:10:29;;;;;;;9.80;6.50;;;;;;;14.73;53.21;97034.10;117172;1177;69029;-71
2021/09/24 07:13:04;;;;;;;12.30;6.90;;;;;;;14.90;52.48;97032.46;117265;1176;69210;-70
2021/09/24 07:15:44;;;;;;;10.20;7.20;;;;;;;14.81;52.84;97033.92;117148;1177;59529;-76
2021/09/24 07:18:13;;;;;;;9.00;6.00;;;;;;;14.90;51.68;97032.25;117020;1177;59539;-71
2021/09/24 07:20:42;;;;;;;11.40;6.30;;;;;;;14.88;51.37;97025.64;117344;1175;70993;-70
2021/09/24 07:23:21;;;;;;;11.60;6.20;;;;;;;14.97;51.72;97027.23;117414;1175;69316;-71
2021/09/24 07:25:52;;;;;;;9.90;6.30;;;;;;;15.39;51.40;97013.79;117313;1175;68438;-72
2021/09/24 07:28:21;;;;;;;9.80;6.50;;;;;;;15.72;50.99;97009.94;117344;1177;59488;-70
2021/09/24 07:30:50;;;;;;;8.90;5.90;;;;;;;15.88;48.98;97009.44;117399;1176;59503;-71
2021/09/24 07:33:19;;;;;;;10.00;6.00;;;;;;;15.64;49.92;97009.73;117337;1175;70897;-73
2021/09/24 07:35:48;;;;;;;9.30;6.10;;;;;;;15.61;50.17;97007.98;117331;1175;69245;-71
2021/09/24 07:38:18;;;;;;;12.60;6.40;;;;;;;15.78;49.84;97005.23;117352;1176;69265;-70
2021/09/24 07:40:47;;;;;;;7.30;5.60;;;;;;;15.84;50.78;97001.36;117344;1176;60298;-71
2021/09/24 07:43:16;;;;;;;10.40;5.60;;;;;;;16.18;48.94;96993.04;117250;1176;59510;-70
2021/09/24 07:45:46;;;;;;;9.50;5.60;;;;;;;16.04;49.25;96983.46;117373;1177;71184;-69
2021/09/24 07:48:15;;;;;;;10.50;5.80;;;;;;;16.04;49.25;96977.46;117073;1177;69143;-74
2021/09/24 07:50:44;;;;;;;8.10;5.50;;;;;;;16.18;48.71;96984.90;117382;1176;69253;-74
2021/09/24 07:53:13;;;;;;;7.50;5.20;;;;;;;16.24;48.95;96982.91;117283;1176;59574;-71
2021/09/24 07:55:42;;;;;;;7.80;5.00;;;;;;;15.87;50.04;96979.48;117394;1176;59481;-70
2021/09/24 07:58:11;;;;;;;8.60;5.40;;;;;;;16.31;48.91;96977.05;117351;1176;71361;-71
2021/09/24 08:00:40;;;;;;;7.50;5.40;;;;;;;16.35;48.13;96968.35;117386;1175;69361;-71
2021/09/24 08:03:09;;;;;;;8.70;5.50;;;;;;;15.94;49.12;96965.14;117322;1177;68478;-69
2021/09/24 08:05:38;;;;;;;8.90;5.10;;;;;;;15.41;50.45;96957.37;117429;1177;59526;-73
2021/09/24 08:08:07;;;;;;;9.60;5.50;;;;;;;15.11;51.99;96944.16;117446;1175;59526;-72
2021/09/24 08:10:36;;;;;;;9.90;5.90;;;;;;;14.86;53.06;96935.34;117372;1176;71152;-69
2021/09/24 08:13:05;;;;;;;11.00;5.50;;;;;;;14.67;52.85;96937.09;117534;1175;69248;-73
2021/09/24 08:15:36;;;;;;;9.00;5.80;;;;;;;14.50;53.06;96942.76;117250;1175;69216;-70
2021/09/24 08:18:05;;;;;;;9.60;6.10;;;;;;;14.32;54.06;96941.21;117372;1175;59506;-70
2021/09/24 08:20:34;;;;;;;8.80;5.20;;;;;;;14.16;54.40;96939.84;117428;1175;59554;-71
2021/09/24 08:23:03;;;;;;;11.20;6.70;;;;;;;13.99;54.99;96945.00;117399;1176;71283;-70
2021/09/24 08:25:32;;;;;;;10.10;6.20;;;;;;;13.87;55.18;96957.36;117401;1175;69317;-72
2021/09/24 08:28:03;;;;;;;15.60;7.80;;;;;;;13.76;55.68;96957.92;117307;1177;68300;-70
2021/09/24 08:30:32;;;;;;;12.20;6.60;;;;;;;13.61;56.03;96954.42;117305;1175;59536;-71
2021/09/24 08:33:02;;;;;;;12.70;5.80;;;;;;;13.50;56.28;96953.83;117251;1177;59516;-71
2021/09/24 08:35:32;;;;;;;11.10;6.00;;;;;;;13.37;56.76;96953.98;117285;1177;71576;-70
2021/09/24 08:38:01;;;;;;;10.70;5.40;;;;;;;13.33;57.37;96956.92;117370;1175;69001;-69
2021/09/24 08:40:32;;;;;;;10.30;5.90;;;;;;;13.34;57.27;96959.63;117418;1175;68227;-72
2021/09/24 08:43:02;;;;;;;10.70;5.30;;;;;;;13.17;58.66;96959.52;117194;1176;59515;-69
2021/09/24 08:45:32;;;;;;;8.70;5.60;;;;;;;13.11;59.28;96956.39;117414;1175;59488;-70
2021/09/24 08:48:07;;;;;;;9.90;5.40;;;;;;;13.06;59.47;96956.14;117418;1177;71759;-71
2021/09/24 08:50:38;;;;;;;8.00;4.70;;;;;;;13.04;59.37;96955.06;117255;1177;69627;-71
2021/09/24 08:53:08;;;;;;;10.70;5.10;;;;;;;13.06;60.27;96954.50;117451;1176;68400;-69
2021/09/24 08:55:38;;;;;;;8.10;5.40;;;;;;;13.10;60.04;96950.48;117321;1176;59876;-70
2021/09/24 08:58:07;;;;;;;12.00;5.30;;;;;;;13.14;60.17;96943.77;117409;1176;59516;-69
2021/09/24 09:00:36;;;;;;;13.30;5.30;;;;;;;13.17;60.04;96941.11;117307;1176;70599;-72
2021/09/24 09:03:11;;;;;;;9.60;5.80;;;;;;;13.17;60.19;96931.43;117264;1176;69238;-70
2021/09/24 09:05:44;;;;;;;9.60;5.60;;;;;;;13.11;60.40;96925.83;117367;1176;69135;-71
2021/09/24 09:08:23;;;;;;;8.70;5.70;;;;;;;13.06;60.56;96921.52;117410;1175;59535;-70
2021/09/24 09:11:02;;;;;;;11.50;6.40;;;;;;;13.09;60.85;96925.98;117356;1175;59532;-69
2021/09/24 09:13:46;;;;;;;10.20;5.80;;;;;;;13.08;60.81;96919.34;117443;1175;70737;-72
2021/09/24 09:16:17;;;;;;;11.20;5.60;;;;;;;13.10;60.47;96916.33;117422;1175;69216;-73
2021/09/24 09:18:47;;;;;;;;;;;;;;;13.14;59.66;96917.18;117418;1176;69165;-70
2021/09/24 09:21:22;;;;;;;10.60;5.40;;;;;;;13.07;60.07;96924.11;117418;1176;59484;-69
2021/09/24 09:23:55;;;;;;;11.30;5.50;;;;;;;12.99;60.27;96923.80;117399;1176;59519;-70
2021/09/24 09:26:25;;;;;;;12.50;5.40;;;;;;;13.02;60.67;96929.66;117398;1176;70401;-70
2021/09/24 09:28:59;;;;;;;9.60;5.50;;;;;;;13.06;60.43;96935.02;117408;1176;69206;-74
2021/09/24 09:32:02;;;;;;;9.10;5.30;;;;;;;13.08;59.74;96933.84;117364;1176;69288;-69
2021/09/24 09:34:34;;;;;;;10.80;6.10;;;;;;;13.07;59.57;96933.94;117320;1176;59541;-70
2021/09/24 09:37:18;;;;;;;12.10;5.90;;;;;;;13.04;59.88;96931.02;117312;1177;59462;-70
2021/09/24 09:40:06;;;;;;;11.80;5.60;;;;;;;13.04;60.22;96932.68;117449;1175;70730;-69
2021/09/24 09:42:39;;;;;;;9.10;5.60;;;;;;;13.09;61.14;96940.38;117419;1176;69019;-69
2021/09/24 09:45:11;;;;;;;11.70;6.80;;;;;;;13.12;60.84;96945.17;117393;1176;68465;-69
2021/09/24 09:47:44;;;;;;;10.90;5.70;;;;;;;13.16;61.34;96947.50;117423;1175;59487;-70
2021/09/24 09:50:23;;;;;;;10.90;5.70;;;;;;;13.18;61.23;96950.44;117455;1176;59510;-69
2021/09/24 09:52:55;;;;;;;12.00;5.70;;;;;;;13.16;60.68;96947.91;117467;1175;71188;-69
2021/09/24 09:55:33;;;;;;;14.10;5.60;;;;;;;13.16;60.76;96954.02;117437;1175;68280;-70
2021/09/24 09:58:08;;;;;;;9.70;5.70;;;;;;;13.16;61.26;96956.48;117393;1175;69399;-70
2021/09/24 10:00:55;;;;;;;11.70;5.80;;;;;;;13.15;61.26;96959.20;117435;1176;59506;-71
2021/09/24 10:03:39;;;;;;;18.10;10.60;;;;;;;13.15;63.44;96965.76;117427;1177;59526;-71
2021/09/24 10:06:21;;;;;;;18.80;11.50;;;;;;;13.07;64.88;96964.75;117351;1175;70784;-71
2021/09/24 10:08:58;;;;;;;20.50;12.80;;;;;;;12.97;67.13;96980.08;117310;1175;69300;-70
2021/09/24 10:11:32;;;;;;;25.40;12.80;;;;;;;12.85;68.01;96981.89;117389;1177;68547;-71
2021/09/24 10:14:09;;;;;;;22.90;12.50;;;;;;;12.69;68.78;96992.46;117361;1177;59604;-73
2021/09/24 10:16:44;;;;;;;15.90;10.40;;;;;;;12.50;70.14;96994.55;117440;1176;59558;-70
2021/09/24 10:19:15;;;;;;;15.80;9.20;;;;;;;12.32;70.08;96987.15;117377;1177;71363;-70
2021/09/24 10:21:52;;;;;;;17.30;10.30;;;;;;;12.18;70.46;96991.23;117310;1175;69192;-69
2021/09/24 10:24:21;;;;;;;15.60;9.70;;;;;;;12.07;71.06;96979.81;117318;1175;69250;-70
2021/09/24 10:26:59;;;;;;;13.70;9.20;;;;;;;12.02;70.35;96980.52;117343;1176;59516;-69
2021/09/24 10:29:31;;;;;;;13.20;10.00;;;;;;;11.95;71.72;96978.77;117198;1177;59485;-71
2021/09/24 10:32:19;;;;;;;15.10;10.50;;;;;;;11.89;72.28;96972.36;117423;1177;70380;-74
2021/09/24 10:35:12;;;;;;;14.00;10.30;;;;;;;11.82;72.46;96967.64;117383;1175;69228;-70
2021/09/24 10:37:47;;;;;;;13.80;9.90;;;;;;;11.73;73.49;96968.20;117332;1177;69344;-71
2021/09/24 10:40:22;;;;;;;17.50;11.30;;;;;;;11.69;74.08;96967.36;117356;1177;59533;-69
2021/09/24 10:42:58;;;;;;;17.50;11.90;;;;;;;11.65;73.75;96957.77;117363;1176;59517;-70
2021/09/24 10:45:42;;;;;;;18.20;12.50;;;;;;;11.60;74.37;96958.82;117436;1175;71643;-72
2021/09/24 10:48:22;;;;;;;13.30;10.10;;;;;;;11.55;74.85;96958.41;117392;1175;69425;-69
2021/09/24 10:50:55;;;;;;;16.00;10.90;;;;;;;11.48;75.87;96953.48;117385;1175;69134;-69
2021/09/24 10:53:47;;;;;;;15.80;11.30;;;;;;;11.42;75.59;96957.34;117470;1175;59532;-71
2021/09/24 10:56:16;;;;;;;16.90;10.80;;;;;;;11.35;75.75;96952.96;117430;1175;59548;-69
2021/09/24 10:58:46;;;;;;;15.90;10.20;;;;;;;11.32;75.36;96948.42;117343;1177;70597;-69
2021/09/24 11:01:41;;;;;;;13.10;10.10;;;;;;;11.28;75.08;96945.23;117410;1175;68251;-69
2021/09/24 11:04:10;;;;;;;15.10;10.20;;;;;;;11.21;75.37;96947.58;117311;1177;69273;-73
2021/09/24 11:06:43;;;;;;;17.80;11.10;;;;;;;11.17;75.16;96953.52;117276;1175;59583;-69
2021/09/24 11:09:17;;;;;;;18.40;12.20;;;;;;;11.11;76.99;96945.51;117382;1175;59532;-69
2021/09/24 11:12:00;;;;;;;16.90;12.80;;;;;;;11.08;77.05;96946.96;117419;1176;71165;-68
2021/09/24 11:14:36;;;;;;;17.00;12.70;;;;;;;11.05;76.99;96954.21;117410;1176;68611;-68
2021/09/24 11:17:08;;;;;;;19.80;13.70;;;;;;;11.01;77.12;96952.23;117242;1177;68455;-70
2021/09/24 11:19:47;;;;;;;21.70;13.70;;;;;;;10.97;78.55;96955.39;117418;1176;59532;-67
2021/09/24 11:22:37;;;;;;;21.40;15.40;;;;;;;10.94;78.29;96962.25;117422;1176;59522;-70
2021/09/24 11:25:11;;;;;;;19.00;14.20;;;;;;;10.89;79.22;96964.89;117409;1175;69493;-69
2021/09/24 11:27:44;;;;;;;20.10;13.10;;;;;;;10.83;79.71;96959.27;117444;1175;69200;-70
2021/09/24 11:30:25;;;;;;;23.30;15.60;;;;;;;10.75;80.14;96958.27;117371;1175;68494;-70
2021/09/24 11:32:57;;;;;;;21.20;15.80;;;;;;;10.73;79.50;96965.09;117375;1176;59525;-70
2021/09/24 11:35:29;;;;;;;22.30;15.70;;;;;;;10.68;80.70;96962.91;117452;1174;59483;-70
2021/09/24 11:38:18;;;;;;;22.00;16.40;;;;;;;10.64;80.69;96964.25;117375;1176;70719;-70
2021/09/24 11:40:49;;;;;;;20.90;15.90;;;;;;;10.54;82.06;96967.38;117067;1176;68699;-72
2021/09/24 11:43:34;;;;;;;25.40;16.50;;;;;;;10.50;81.65;96966.25;117408;1176;68576;-69